Terminal Aerodrome Forecast
Issued by NWS

Home | Current Version | Previous Version | Text Only | Print | Product List | Glossary On
Versions: 1 2 3 4 5 6 7 8 9 10 11 12
000
FTUS43 KICT 271100
TAFSLN
TAF
KSLN 271121Z 2712/2812 15012KT P6SM SKC
     FM271500 17015G20KT P6SM FEW050
     FM280100 14010KT P6SM SKC
     FM280900 14010KT P6SM BKN050=

USA.gov is the U.S. government's official web portal to all federal, state and local government web resources and services.